sensor_id;sensor_type;location;lat;lon;timestamp;pressure;altitude;pressure_sealevel;temperature;humidity
39949;BME280;29070;48.102;-1.652;2024-03-23T00:55:44;101848.31;;;7.41;71.92
39949;BME280;29070;48.102;-1.652;2024-03-23T01:00:45;101845.31;;;7.36;72.10
39949;BME280;29070;48.102;-1.652;2024-03-23T01:05:45;101851.50;;;7.35;72.13
39949;BME280;29070;48.102;-1.652;2024-03-23T01:10:56;101852.75;;;7.31;71.96
39949;BME280;29070;48.102;-1.652;2024-03-23T01:15:57;101853.88;;;7.28;71.99
39949;BME280;29070;48.102;-1.652;2024-03-23T01:20:58;101869.38;;;7.30;72.11
39949;BME280;29070;48.102;-1.652;2024-03-23T01:25:58;101866.78;;;7.30;72.24
39949;BME280;29070;48.102;-1.652;2024-03-23T01:30:58;101857.16;;;7.30;71.94
39949;BME280;29070;48.102;-1.652;2024-03-23T01:35:59;101858.56;;;7.24;72.01
39949;BME280;29070;48.102;-1.652;2024-03-23T01:40:59;101851.16;;;7.20;72.35
39949;BME280;29070;48.102;-1.652;2024-03-23T01:45:59;101858.59;;;7.15;72.09
39949;BME280;29070;48.102;-1.652;2024-03-23T01:51:00;101860.94;;;7.08;72.24
39949;BME280;29070;48.102;-1.652;2024-03-23T01:56:01;101862.34;;;7.02;71.95
39949;BME280;29070;48.102;-1.652;2024-03-23T02:01:02;101868.03;;;6.98;72.13
39949;BME280;29070;48.102;-1.652;2024-03-23T02:06:03;101868.22;;;6.77;73.35
39949;BME280;29070;48.102;-1.652;2024-03-23T02:11:03;101861.59;;;6.82;72.38
39949;BME280;29070;48.102;-1.652;2024-03-23T02:16:05;101860.25;;;6.78;72.29
39949;BME280;29070;48.102;-1.652;2024-03-23T02:21:06;101861.34;;;6.76;72.17
39949;BME280;29070;48.102;-1.652;2024-03-23T02:26:06;101868.94;;;6.69;72.35
39949;BME280;29070;48.102;-1.652;2024-03-23T02:31:07;101866.16;;;6.71;72.65
39949;BME280;29070;48.102;-1.652;2024-03-23T02:36:07;101864.66;;;6.68;72.52
39949;BME280;29070;48.102;-1.652;2024-03-23T02:41:07;101863.97;;;6.66;72.62
39949;BME280;29070;48.102;-1.652;2024-03-23T02:46:08;101873.06;;;6.62;72.75
39949;BME280;29070;48.102;-1.652;2024-03-23T02:51:08;101870.44;;;6.62;72.83
39949;BME280;29070;48.102;-1.652;2024-03-23T02:56:08;101876.63;;;6.61;72.60
39949;BME280;29070;48.102;-1.652;2024-03-23T03:01:09;101889.41;;;6.64;72.90
39949;BME280;29070;48.102;-1.652;2024-03-23T03:06:09;101903.66;;;6.70;73.14
39949;BME280;29070;48.102;-1.652;2024-03-23T03:11:09;101909.28;;;6.75;72.67
39949;BME280;29070;48.102;-1.652;2024-03-23T03:16:10;101912.97;;;6.82;73.03
39949;BME280;29070;48.102;-1.652;2024-03-23T03:21:11;101890.72;;;6.87;73.03
39949;BME280;29070;48.102;-1.652;2024-03-23T03:26:11;101894.53;;;6.93;73.01
39949;BME280;29070;48.102;-1.652;2024-03-23T03:31:11;101885.75;;;6.94;73.18
39949;BME280;29070;48.102;-1.652;2024-03-23T03:36:12;101881.63;;;6.92;73.14
39949;BME280;29070;48.102;-1.652;2024-03-23T03:41:12;101888.22;;;6.86;72.74
39949;BME280;29070;48.102;-1.652;2024-03-23T03:46:13;101887.56;;;6.84;72.90
39949;BME280;29070;48.102;-1.652;2024-03-23T03:51:13;101886.47;;;6.77;72.77
39949;BME280;29070;48.102;-1.652;2024-03-23T03:56:13;101876.44;;;6.72;72.86
39949;BME280;29070;48.102;-1.652;2024-03-23T04:01:14;101875.78;;;6.70;73.28
39949;BME280;29070;48.102;-1.652;2024-03-23T04:06:20;101884.19;;;6.64;72.96
39949;BME280;29070;48.102;-1.652;2024-03-23T04:11:20;101880.59;;;6.65;73.25
39949;BME280;29070;48.102;-1.652;2024-03-23T04:16:26;101885.41;;;6.60;73.32
39949;BME280;29070;48.102;-1.652;2024-03-23T04:21:27;101872.94;;;6.54;73.30
39949;BME280;29070;48.102;-1.652;2024-03-23T04:26:27;101877.59;;;6.50;73.37
39949;BME280;29070;48.102;-1.652;2024-03-23T04:31:27;101878.00;;;6.45;73.24
39949;BME280;29070;48.102;-1.652;2024-03-23T04:36:28;101882.00;;;6.40;73.31
39949;BME280;29070;48.102;-1.652;2024-03-23T04:41:28;101886.13;;;6.42;73.39
39949;BME280;29070;48.102;-1.652;2024-03-23T04:46:28;101888.31;;;6.37;73.48
39949;BME280;29070;48.102;-1.652;2024-03-23T04:51:35;101888.31;;;6.37;73.52
39949;BME280;29070;48.102;-1.652;2024-03-23T04:56:36;101919.34;;;6.40;73.50
39949;BME280;29070;48.102;-1.652;2024-03-23T05:01:37;101905.75;;;6.46;73.65
39949;BME280;29070;48.102;-1.652;2024-03-23T05:06:39;101907.13;;;6.41;73.81
39949;BME280;29070;48.102;-1.652;2024-03-23T05:11:39;101906.31;;;6.40;73.74
39949;BME280;29070;48.102;-1.652;2024-03-23T05:16:40;101906.72;;;6.36;73.67
39949;BME280;29070;48.102;-1.652;2024-03-23T05:21:40;101900.13;;;6.32;73.44
39949;BME280;29070;48.102;-1.652;2024-03-23T05:26:41;101897.09;;;6.26;73.72
39949;BME280;29070;48.102;-1.652;2024-03-23T05:31:41;101895.44;;;6.25;73.68
39949;BME280;29070;48.102;-1.652;2024-03-23T05:36:41;101895.16;;;6.19;73.61
39949;BME280;29070;48.102;-1.652;2024-03-23T05:41:42;101898.06;;;6.16;73.47
39949;BME280;29070;48.102;-1.652;2024-03-23T05:46:42;101903.53;;;6.13;73.43
39949;BME280;29070;48.102;-1.652;2024-03-23T05:51:48;101916.03;;;6.09;73.80
39949;BME280;29070;48.102;-1.652;2024-03-23T05:56:48;101922.59;;;6.03;73.44
39949;BME280;29070;48.102;-1.652;2024-03-23T06:01:49;101927.81;;;6.03;73.55
39949;BME280;29070;48.102;-1.652;2024-03-23T06:06:49;101929.59;;;6.03;73.85
39949;BME280;29070;48.102;-1.652;2024-03-23T06:11:50;101924.53;;;6.01;73.73
39949;BME280;29070;48.102;-1.652;2024-03-23T06:16:50;101920.13;;;6.02;73.63
39949;BME280;29070;48.102;-1.652;2024-03-23T06:21:50;101933.97;;;6.02;73.75
39949;BME280;29070;48.102;-1.652;2024-03-23T06:26:51;101937.28;;;6.04;73.84
39949;BME280;29070;48.102;-1.652;2024-03-23T06:31:54;101934.66;;;6.04;74.13
39949;BME280;29070;48.102;-1.652;2024-03-23T06:36:55;101931.09;;;6.05;73.69
39949;BME280;29070;48.102;-1.652;2024-03-23T06:41:55;101927.56;;;6.06;73.66
39949;BME280;29070;48.102;-1.652;2024-03-23T06:46:57;101914.09;;;6.11;73.97
39949;BME280;29070;48.102;-1.652;2024-03-23T06:51:57;101922.91;;;6.39;74.34
39949;BME280;29070;48.102;-1.652;2024-03-23T06:56:58;101935.38;;;6.65;74.30
39949;BME280;29070;48.102;-1.652;2024-03-23T07:01:58;101925.47;;;6.78;74.11
39949;BME280;29070;48.102;-1.652;2024-03-23T07:06:59;101934.66;;;6.92;73.54
39949;BME280;29070;48.102;-1.652;2024-03-23T07:11:59;101938.25;;;7.66;70.81
39949;BME280;29070;48.102;-1.652;2024-03-23T07:16:59;101930.72;;;7.25;73.13
39949;BME280;29070;48.102;-1.652;2024-03-23T07:22:00;101924.94;;;7.32;73.52
39949;BME280;29070;48.102;-1.652;2024-03-23T07:27:00;101931.69;;;7.52;73.43
39949;BME280;29070;48.102;-1.652;2024-03-23T07:32:00;101943.31;;;7.68;72.98
39949;BME280;29070;48.102;-1.652;2024-03-23T07:37:01;101942.31;;;7.78;73.00
39949;BME280;29070;48.102;-1.652;2024-03-23T07:42:01;101935.41;;;7.77;73.28
39949;BME280;29070;48.102;-1.652;2024-03-23T07:47:02;101939.16;;;7.75;73.35
39949;BME280;29070;48.102;-1.652;2024-03-23T07:52:02;101939.31;;;7.73;73.29
39949;BME280;29070;48.102;-1.652;2024-03-23T07:57:03;101934.00;;;7.83;73.50
39949;BME280;29070;48.102;-1.652;2024-03-23T08:02:03;101917.47;;;7.92;73.61
39949;BME280;29070;48.102;-1.652;2024-03-23T08:07:04;101921.13;;;7.99;73.50
39949;BME280;29070;48.102;-1.652;2024-03-23T08:12:04;101916.19;;;8.14;73.40
39949;BME280;29070;48.102;-1.652;2024-03-23T08:17:05;101927.03;;;8.37;73.68
39949;BME280;29070;48.102;-1.652;2024-03-23T08:22:05;101933.47;;;8.61;73.29
39949;BME280;29070;48.102;-1.652;2024-03-23T08:27:06;101937.59;;;8.90;72.65
39949;BME280;29070;48.102;-1.652;2024-03-23T08:32:06;101943.34;;;9.20;72.59
39949;BME280;29070;48.102;-1.652;2024-03-23T08:37:06;101926.75;;;9.45;72.27
39949;BME280;29070;48.102;-1.652;2024-03-23T08:42:07;101925.25;;;9.77;71.97
39949;BME280;29070;48.102;-1.652;2024-03-23T08:47:08;101935.16;;;10.00;71.94
39949;BME280;29070;48.102;-1.652;2024-03-23T08:52:08;101942.03;;;10.17;71.39
39949;BME280;29070;48.102;-1.652;2024-03-23T08:57:09;101938.50;;;10.51;71.10
39949;BME280;29070;48.102;-1.652;2024-03-23T09:02:09;101938.16;;;10.71;70.71
39949;BME280;29070;48.102;-1.652;2024-03-23T09:07:09;101944.72;;;10.83;70.12
39949;BME280;29070;48.102;-1.652;2024-03-23T09:12:10;101943.50;;;11.10;70.11
39949;BME280;29070;48.102;-1.652;2024-03-23T09:17:10;101958.09;;;11.29;69.49
39949;BME280;29070;48.102;-1.652;2024-03-23T09:22:10;101942.41;;;11.44;69.31
39949;BME280;29070;48.102;-1.652;2024-03-23T09:27:11;101942.31;;;11.69;69.03
39949;BME280;29070;48.102;-1.652;2024-03-23T09:32:11;101934.16;;;11.87;68.85
39949;BME280;29070;48.102;-1.652;2024-03-23T09:37:12;101927.13;;;12.10;68.64
39949;BME280;29070;48.102;-1.652;2024-03-23T09:42:12;101925.13;;;12.35;68.19
39949;BME280;29070;48.102;-1.652;2024-03-23T09:47:14;101927.88;;;12.42;67.57
39949;BME280;29070;48.102;-1.652;2024-03-23T09:52:14;101917.56;;;12.55;67.34
39949;BME280;29070;48.102;-1.652;2024-03-23T09:57:14;101912.50;;;12.69;67.09
39949;BME280;29070;48.102;-1.652;2024-03-23T10:02:15;101900.66;;;12.88;66.98
39949;BME280;29070;48.102;-1.652;2024-03-23T10:07:20;101898.47;;;13.06;66.29
39949;BME280;29070;48.102;-1.652;2024-03-23T10:12:23;101897.81;;;13.19;65.73
39949;BME280;29070;48.102;-1.652;2024-03-23T10:17:24;101896.44;;;13.23;65.30
39949;BME280;29070;48.102;-1.652;2024-03-23T10:22:24;101886.09;;;13.22;65.04
39949;BME280;29070;48.102;-1.652;2024-03-23T10:27:25;101889.34;;;13.39;64.75
39949;BME280;29070;48.102;-1.652;2024-03-23T10:32:25;101886.28;;;13.35;64.59
39949;BME280;29070;48.102;-1.652;2024-03-23T10:37:25;101896.00;;;13.34;64.16
39949;BME280;29070;48.102;-1.652;2024-03-23T10:42:26;101869.44;;;13.21;63.90
39949;BME280;29070;48.102;-1.652;2024-03-23T10:47:26;101883.00;;;13.33;63.13
39949;BME280;29070;48.102;-1.652;2024-03-23T10:52:27;101875.13;;;13.54;62.75
39949;BME280;29070;48.102;-1.652;2024-03-23T10:57:34;101851.72;;;13.66;61.78
39949;BME280;29070;48.102;-1.652;2024-03-23T11:02:35;101846.38;;;14.03;62.22
39949;BME280;29070;48.102;-1.652;2024-03-23T11:07:35;101842.69;;;13.97;61.78
39949;BME280;29070;48.102;-1.652;2024-03-23T11:12:35;101835.03;;;13.81;61.33
39949;BME280;29070;48.102;-1.652;2024-03-23T11:17:35;101829.09;;;13.79;61.45
39949;BME280;29070;48.102;-1.652;2024-03-23T11:27:39;101822.56;;;13.53;61.22
39949;BME280;29070;48.102;-1.652;2024-03-23T11:32:40;101822.94;;;13.71;60.70
39949;BME280;29070;48.102;-1.652;2024-03-23T11:37:40;101800.97;;;13.64;60.20
39949;BME280;29070;48.102;-1.652;2024-03-23T11:42:41;101805.59;;;13.41;60.19
39949;BME280;29070;48.102;-1.652;2024-03-23T11:47:41;101796.69;;;13.42;59.91
39949;BME280;29070;48.102;-1.652;2024-03-23T11:52:42;101799.19;;;13.93;59.72
39949;BME280;29070;48.102;-1.652;2024-03-23T11:57:42;101781.28;;;13.88;59.38
39949;BME280;29070;48.102;-1.652;2024-03-23T12:02:42;101770.81;;;13.73;59.19
39949;BME280;29070;48.102;-1.652;2024-03-23T12:07:43;101773.84;;;13.70;59.02
39949;BME280;29070;48.102;-1.652;2024-03-23T12:12:43;101764.53;;;13.75;58.82
39949;BME280;29070;48.102;-1.652;2024-03-23T12:17:44;101758.63;;;13.72;58.54
39949;BME280;29070;48.102;-1.652;2024-03-23T12:22:44;101756.63;;;14.03;58.18
39949;BME280;29070;48.102;-1.652;2024-03-23T12:27:46;101750.94;;;14.34;58.15
39949;BME280;29070;48.102;-1.652;2024-03-23T12:32:46;101756.88;;;14.43;57.60
39949;BME280;29070;48.102;-1.652;2024-03-23T12:37:46;101764.75;;;14.01;57.59
39949;BME280;29070;48.102;-1.652;2024-03-23T12:42:47;101758.91;;;13.56;57.74
39949;BME280;29070;48.102;-1.652;2024-03-23T12:47:47;101769.69;;;13.40;57.57
39949;BME280;29070;48.102;-1.652;2024-03-23T12:52:48;101754.81;;;14.03;57.46
39949;BME280;29070;48.102;-1.652;2024-03-23T12:57:48;101739.44;;;14.14;57.33
39949;BME280;29070;48.102;-1.652;2024-03-23T13:02:48;101723.06;;;14.25;57.17
39949;BME280;29070;48.102;-1.652;2024-03-23T13:07:49;101715.44;;;14.43;56.84
39949;BME280;29070;48.102;-1.652;2024-03-23T13:12:49;101706.78;;;14.21;56.61
39949;BME280;29070;48.102;-1.652;2024-03-23T13:17:49;101710.81;;;14.17;56.45
39949;BME280;29070;48.102;-1.652;2024-03-23T13:22:52;101694.09;;;14.03;56.60
39949;BME280;29070;48.102;-1.652;2024-03-23T13:27:52;101678.47;;;13.73;56.43
39949;BME280;29070;48.102;-1.652;2024-03-23T13:32:53;101690.94;;;13.58;56.58
39949;BME280;29070;48.102;-1.652;2024-03-23T13:37:53;101688.22;;;13.51;56.59
39949;BME280;29070;48.102;-1.652;2024-03-23T13:42:53;101682.16;;;13.51;56.89
39949;BME280;29070;48.102;-1.652;2024-03-23T13:47:54;101711.50;;;13.05;57.25
39949;BME280;29070;48.102;-1.652;2024-03-23T13:52:54;101678.69;;;13.29;57.47
39949;BME280;29070;48.102;-1.652;2024-03-23T13:57:54;101675.34;;;13.63;57.23
39949;BME280;29070;48.102;-1.652;2024-03-23T14:02:55;101666.63;;;13.20;57.84
39949;BME280;29070;48.102;-1.652;2024-03-23T14:07:55;101666.81;;;12.96;58.47
39949;BME280;29070;48.102;-1.652;2024-03-23T14:12:55;101647.47;;;12.89;58.56
39949;BME280;29070;48.102;-1.652;2024-03-23T14:17:56;101633.50;;;12.89;58.87
39949;BME280;29070;48.102;-1.652;2024-03-23T14:22:57;101623.47;;;12.77;58.88
39949;BME280;29070;48.102;-1.652;2024-03-23T14:27:57;101613.97;;;12.83;59.22
39949;BME280;29070;48.102;-1.652;2024-03-23T14:32:58;101613.66;;;12.71;59.21
39949;BME280;29070;48.102;-1.652;2024-03-23T14:37:58;101610.44;;;12.54;59.39
39949;BME280;29070;48.102;-1.652;2024-03-23T14:42:59;101598.63;;;12.29;59.46
39949;BME280;29070;48.102;-1.652;2024-03-23T14:47:59;101576.28;;;12.61;59.41
39949;BME280;29070;48.102;-1.652;2024-03-23T14:53:00;101569.19;;;12.83;59.31
39949;BME280;29070;48.102;-1.652;2024-03-23T14:58:01;101559.44;;;13.05;59.25
39949;BME280;29070;48.102;-1.652;2024-03-23T15:03:01;101550.69;;;13.26;59.38
39949;BME280;29070;48.102;-1.652;2024-03-23T15:08:02;101539.97;;;13.56;59.36
39949;BME280;29070;48.102;-1.652;2024-03-23T15:13:02;101541.81;;;13.62;59.43
39949;BME280;29070;48.102;-1.652;2024-03-23T15:18:03;101522.16;;;13.71;59.15
39949;BME280;29070;48.102;-1.652;2024-03-23T15:23:03;101505.81;;;13.48;59.65
39949;BME280;29070;48.102;-1.652;2024-03-23T15:28:04;101487.41;;;13.26;59.89
39949;BME280;29070;48.102;-1.652;2024-03-23T15:33:04;101490.41;;;13.16;60.01
39949;BME280;29070;48.102;-1.652;2024-03-23T15:38:05;101492.84;;;12.90;60.10
39949;BME280;29070;48.102;-1.652;2024-03-23T15:43:05;101511.63;;;12.58;60.50
39949;BME280;29070;48.102;-1.652;2024-03-23T15:48:05;101511.34;;;12.32;60.86
39949;BME280;29070;48.102;-1.652;2024-03-23T15:53:06;101497.56;;;12.30;61.02
39949;BME280;29070;48.102;-1.652;2024-03-23T15:58:07;101493.78;;;12.17;61.18
39949;BME280;29070;48.102;-1.652;2024-03-23T16:03:07;101476.69;;;12.07;61.32
39949;BME280;29070;48.102;-1.652;2024-03-23T16:08:07;101477.03;;;12.40;61.27
39949;BME280;29070;48.102;-1.652;2024-03-23T16:13:08;101478.41;;;12.57;61.11
39949;BME280;29070;48.102;-1.652;2024-03-23T16:18:09;101485.59;;;12.70;61.06
39949;BME280;29070;48.102;-1.652;2024-03-23T16:23:09;101472.28;;;12.29;60.91
39949;BME280;29070;48.102;-1.652;2024-03-23T16:28:09;101465.03;;;12.16;61.29
39949;BME280;29070;48.102;-1.652;2024-03-23T16:33:10;101463.69;;;12.05;61.51
39949;BME280;29070;48.102;-1.652;2024-03-23T16:38:10;101469.34;;;12.02;61.45
39949;BME280;29070;48.102;-1.652;2024-03-23T16:43:10;101460.28;;;11.90;61.73
39949;BME280;29070;48.102;-1.652;2024-03-23T16:48:11;101457.47;;;11.76;61.93
39949;BME280;29070;48.102;-1.652;2024-03-23T16:53:11;101447.44;;;11.65;61.85
39949;BME280;29070;48.102;-1.652;2024-03-23T16:58:11;101485.38;;;11.56;61.81
39949;BME280;29070;48.102;-1.652;2024-03-23T17:03:12;101456.44;;;11.26;62.48
39949;BME280;29070;48.102;-1.652;2024-03-23T17:08:12;101459.69;;;11.13;62.25
39949;BME280;29070;48.102;-1.652;2024-03-23T17:13:13;101445.47;;;11.07;62.64
39949;BME280;29070;48.102;-1.652;2024-03-23T17:18:14;101437.44;;;11.09;62.77
39949;BME280;29070;48.102;-1.652;2024-03-23T17:23:22;101426.91;;;11.09;63.36
39949;BME280;29070;48.102;-1.652;2024-03-23T17:28:23;101427.50;;;10.96;63.23
39949;BME280;29070;48.102;-1.652;2024-03-23T17:33:24;101423.00;;;10.90;63.15
39949;BME280;29070;48.102;-1.652;2024-03-23T17:38:24;101431.41;;;10.85;63.34
39949;BME280;29070;48.102;-1.652;2024-03-23T17:43:24;101479.03;;;10.82;63.76
39949;BME280;29070;48.102;-1.652;2024-03-23T17:48:25;101449.91;;;10.54;63.70
39949;BME280;29070;48.102;-1.652;2024-03-23T17:53:25;101450.03;;;10.38;63.97
39949;BME280;29070;48.102;-1.652;2024-03-23T17:58:25;101441.53;;;10.36;64.42
39949;BME280;29070;48.102;-1.652;2024-03-23T18:03:27;101436.63;;;10.33;64.72
39949;BME280;29070;48.102;-1.652;2024-03-23T18:08:27;101455.16;;;10.31;65.01
39949;BME280;29070;48.102;-1.652;2024-03-23T18:13:28;101451.41;;;10.25;65.10
39949;BME280;29070;48.102;-1.652;2024-03-23T18:18:28;101454.06;;;10.17;65.50
39949;BME280;29070;48.102;-1.652;2024-03-23T18:23:29;101457.56;;;10.09;65.49
39949;BME280;29070;48.102;-1.652;2024-03-23T18:28:29;101472.50;;;10.09;65.67
39949;BME280;29070;48.102;-1.652;2024-03-23T18:33:34;101460.13;;;9.95;66.02
39949;BME280;29070;48.102;-1.652;2024-03-23T18:38:37;101459.16;;;9.87;66.22
39949;BME280;29070;48.102;-1.652;2024-03-23T18:43:37;101459.19;;;9.79;66.16
39949;BME280;29070;48.102;-1.652;2024-03-23T18:48:38;101463.63;;;9.79;66.51
39949;BME280;29070;48.102;-1.652;2024-03-23T18:53:38;101473.66;;;9.75;66.55
39949;BME280;29070;48.102;-1.652;2024-03-23T18:58:39;101504.31;;;9.66;66.89
39949;BME280;29070;48.102;-1.652;2024-03-23T19:03:39;101505.84;;;9.44;66.96
39949;BME280;29070;48.102;-1.652;2024-03-23T19:08:39;101522.09;;;9.15;66.72
39949;BME280;29070;48.102;-1.652;2024-03-23T19:13:40;101512.50;;;8.91;66.81
39949;BME280;29070;48.102;-1.652;2024-03-23T19:18:40;101517.22;;;8.79;66.86
39949;BME280;29070;48.102;-1.652;2024-03-23T19:23:41;101517.56;;;8.68;67.01
39949;BME280;29070;48.102;-1.652;2024-03-23T19:28:41;101515.06;;;8.58;67.11
39949;BME280;29070;48.102;-1.652;2024-03-23T19:33:41;101511.66;;;8.57;67.51
39949;BME280;29070;48.102;-1.652;2024-03-23T19:38:42;101508.84;;;8.51;67.40
39949;BME280;29070;48.102;-1.652;2024-03-23T19:43:42;101509.19;;;8.48;67.47
39949;BME280;29070;48.102;-1.652;2024-03-23T19:48:44;101510.97;;;8.47;67.65
39949;BME280;29070;48.102;-1.652;2024-03-23T19:53:45;101511.13;;;8.46;67.76
39949;BME280;29070;48.102;-1.652;2024-03-23T19:58:45;101501.00;;;8.43;68.54
39949;BME280;29070;48.102;-1.652;2024-03-23T20:03:46;101495.44;;;8.46;68.11
39949;BME280;29070;48.102;-1.652;2024-03-23T20:08:47;101501.50;;;8.46;68.52
39949;BME280;29070;48.102;-1.652;2024-03-23T20:13:49;101500.28;;;8.40;68.47
39949;BME280;29070;48.102;-1.652;2024-03-23T20:18:55;101491.94;;;8.37;68.76
39949;BME280;29070;48.102;-1.652;2024-03-23T20:23:56;101495.72;;;8.34;68.31
39949;BME280;29070;48.102;-1.652;2024-03-23T20:28:56;101498.34;;;8.34;68.39
39949;BME280;29070;48.102;-1.652;2024-03-23T20:33:56;101490.63;;;8.33;68.50
39949;BME280;29070;48.102;-1.652;2024-03-23T20:38:57;101493.41;;;8.31;68.68
39949;BME280;29070;48.102;-1.652;2024-03-23T20:43:57;101487.19;;;8.24;68.59
39949;BME280;29070;48.102;-1.652;2024-03-23T20:48:57;101471.34;;;8.17;68.73
39949;BME280;29070;48.102;-1.652;2024-03-23T20:53:59;101469.19;;;8.13;68.55
39949;BME280;29070;48.102;-1.652;2024-03-23T20:58:59;101473.13;;;8.09;68.64
39949;BME280;29070;48.102;-1.652;2024-03-23T21:03:59;101482.56;;;8.01;68.62
39949;BME280;29070;48.102;-1.652;2024-03-23T21:09:00;101489.41;;;7.94;68.66
39949;BME280;29070;48.102;-1.652;2024-03-23T21:14:00;101488.25;;;7.89;68.95
39949;BME280;29070;48.102;-1.652;2024-03-23T21:19:00;101501.13;;;7.82;69.25
39949;BME280;29070;48.102;-1.652;2024-03-23T21:24:01;101504.06;;;7.79;69.13
39949;BME280;29070;48.102;-1.652;2024-03-23T21:29:02;101513.19;;;7.75;68.92
39949;BME280;29070;48.102;-1.652;2024-03-23T21:34:02;101514.16;;;7.74;69.12
39949;BME280;29070;48.102;-1.652;2024-03-23T21:39:03;101512.34;;;7.74;69.38
39949;BME280;29070;48.102;-1.652;2024-03-23T21:44:07;101507.97;;;7.75;69.48
39949;BME280;29070;48.102;-1.652;2024-03-23T21:49:07;101502.88;;;7.73;69.69
39949;BME280;29070;48.102;-1.652;2024-03-23T21:54:07;101507.13;;;7.74;69.70
39949;BME280;29070;48.102;-1.652;2024-03-23T21:59:08;101505.50;;;7.73;69.47
39949;BME280;29070;48.102;-1.652;2024-03-23T22:04:09;101497.16;;;7.70;69.85
39949;BME280;29070;48.102;-1.652;2024-03-23T22:09:10;101495.16;;;7.63;69.66
39949;BME280;29070;48.102;-1.652;2024-03-23T22:14:10;101496.09;;;7.54;69.57
39949;BME280;29070;48.102;-1.652;2024-03-23T22:19:11;101500.16;;;7.49;69.34
39949;BME280;29070;48.102;-1.652;2024-03-23T22:24:11;101497.31;;;7.42;69.73
39949;BME280;29070;48.102;-1.652;2024-03-23T22:29:11;101503.03;;;7.37;70.09
39949;BME280;29070;48.102;-1.652;2024-03-23T22:34:12;101495.00;;;7.31;69.99
39949;BME280;29070;48.102;-1.652;2024-03-23T22:39:12;101493.34;;;7.30;70.22
39949;BME280;29070;48.102;-1.652;2024-03-23T22:44:14;101506.38;;;7.30;70.09
39949;BME280;29070;48.102;-1.652;2024-03-23T22:49:15;101505.94;;;7.34;70.21
39949;BME280;29070;48.102;-1.652;2024-03-23T22:54:15;101511.00;;;7.36;70.48
39949;BME280;29070;48.102;-1.652;2024-03-23T22:59:15;101505.34;;;7.40;70.48
39949;BME280;29070;48.102;-1.652;2024-03-23T23:04:16;101488.53;;;7.43;70.38
39949;BME280;29070;48.102;-1.652;2024-03-23T23:09:17;101500.44;;;7.45;70.31
39949;BME280;29070;48.102;-1.652;2024-03-23T23:14:17;101504.88;;;7.45;70.41
39949;BME280;29070;48.102;-1.652;2024-03-23T23:19:17;101513.34;;;7.47;70.75
39949;BME280;29070;48.102;-1.652;2024-03-23T23:24:19;101516.31;;;7.44;70.85
39949;BME280;29070;48.102;-1.652;2024-03-23T23:29:19;101507.44;;;7.37;70.74
39949;BME280;29070;48.102;-1.652;2024-03-23T23:34:19;101485.19;;;7.33;70.96
39949;BME280;29070;48.102;-1.652;2024-03-23T23:39:20;101462.00;;;7.30;71.11
39949;BME280;29070;48.102;-1.652;2024-03-23T23:44:20;101471.63;;;7.29;70.80
39949;BME280;29070;48.102;-1.652;2024-03-23T23:49:21;101468.66;;;7.24;70.96
39949;BME280;29070;48.102;-1.652;2024-03-23T23:54:21;101475.31;;;7.18;70.79
39949;BME280;29070;48.102;-1.652;2024-03-23T23:59:22;101472.34;;;7.13;70.65
